sim
Sign-in with your pilot id or email,
or register
Callsign
Passwort

Schedule Details

Flight Number: OEO6713
Departure: Port Louis Sir Seewoosagur Ramgoolam Airport (FIMP) at 04:00
Arrival: Munich Airport (EDDM) at 16:20

Weather Information
Getting current METAR information for FIMP 280700Z 06013KT 9999 SCT018 26/20 Q1021
Getting current METAR information for EDDM 280720Z VRB02KT 9999 -RA FEW025 SCT045 06/05 Q1010 NOSIG

Schedule Frequency

Route Map